CheckWX is a tool to help pilots better visualize weather data.  It is not intended as a substitute for an official pre-flight weather briefing.

00:34:59 UTC

KBHB METAR
Hancock County-Bar Harbor Airport
Bar Harbor, Maine, USA
Current

39 mins ago

KBHB 222356Z AUTO 05004KT 10SM CLR 11/07 A3015 RMK AO2 SLP213 T01060072 10133 20106 56009
Observed
Oct-22 @ 23:56 UTC
Wind
  • 050° at 4 KTS
Visibility
10 SM
Flight Rules
VFR
Cloud Levels
  • Clear skies
Temperature
11°C / 52°F
Dewpoint
C / 45°F
Humidity
77%
Altimeter
30.15" Hg
Pressure
1021.02 hPa
Previous

2 hours ago

KBHB 222256Z AUTO 08008KT 10SM CLR 11/07 A3016 RMK AO2 SLP216 T01110072
Observed
Oct-22 @ 22:56 UTC
Wind
  • 080° at 8 KTS
Visibility
10 SM
Flight Rules
VFR
Cloud Levels
  • Clear skies
Temperature
11°C / 52°F
Dewpoint
C / 45°F
Humidity
77%
Altimeter
30.16" Hg
Pressure
1021.32 hPa
Previous

3 hours ago

KBHB 222156Z AUTO 08006KT 10SM CLR 12/07 A3016 RMK AO2 SLP216 T01170067
Observed
Oct-22 @ 21:56 UTC
Wind
  • 080° at 6 KTS
Visibility
10 SM
Flight Rules
VFR
Cloud Levels
  • Clear skies
Temperature
12°C / 54°F
Dewpoint
C / 45°F
Humidity
72%
Altimeter
30.16" Hg
Pressure
1021.32 hPa